Almaza Air Force Base


Codes: HEAZ/
Name: Almaza Air Force Base
City: Cairo
Country: Egypt
Elevation: 300 ft.

Photos at Almaza Air Force Base


   Photos courtesy of SpottingLog. You can add your own sightings and photos by signing up for a free trial today.



729, 01-Jul-2009
© Eddie Gould

SU-BPE, 01-Mar-2009
© Eddie Gould

728, 08-Feb-2009
© Eddie Gould

1161, 26-Dec-2008
© Eddie Gould

1163, 21-Dec-2008
© Eddie Gould


Weather at Almaza Air Force Base


Time (UTC)DescriptionTempratureWindCloud coverageVisibilityPressureHumidity
15-Apr-2024 15:00Clear Sky30°C20 mph, NE0%10000m1013hPa21%
15-Apr-2024 18:00Few Clouds28°C18 mph, NE21%10000m1014hPa26%
15-Apr-2024 21:00Clear Sky24°C9 mph, NE0%10000m1015hPa41%
16-Apr-2024 00:00Clear Sky20°C9 mph, NE1%10000m1015hPa55%
16-Apr-2024 03:00Clear Sky18°C11 mph, NE4%10000m1015hPa60%
16-Apr-2024 06:00Scattered Clouds22°C16 mph, NE43%10000m1015hPa44%
16-Apr-2024 09:00Overcast Clouds28°C16 mph, NE96%10000m1015hPa26%
16-Apr-2024 12:00Overcast Clouds31°C11 mph, NE98%10000m1012hPa19%
16-Apr-2024 15:00Overcast Clouds31°C11 mph, NE100%10000m1011hPa17%
16-Apr-2024 18:00Broken Clouds24°C18 mph, NE66%10000m1012hPa45%
16-Apr-2024 21:00Clear Sky23°C9 mph, E1%10000m1011hPa49%
17-Apr-2024 00:00Clear Sky23°C4 mph, E1%10000m1010hPa32%
17-Apr-2024 03:00Clear Sky23°C7 mph, SE0%10000m1009hPa24%
17-Apr-2024 06:00Clear Sky28°C9 mph, S0%10000m1009hPa18%
17-Apr-2024 09:00Clear Sky33°C16 mph, S0%10000m1008hPa12%
17-Apr-2024 12:00Clear Sky37°C16 mph, SW0%10000m1006hPa7%
17-Apr-2024 15:00Clear Sky36°C16 mph, SW0%10000m1005hPa7%
17-Apr-2024 18:00Clear Sky31°C7 mph, S0%10000m1007hPa11%
17-Apr-2024 21:00Overcast Clouds30°C13 mph, W89%10000m1007hPa14%
18-Apr-2024 00:00Scattered Clouds23°C9 mph, NW47%10000m1009hPa35%
18-Apr-2024 03:00Clear Sky21°C9 mph, NW0%10000m1011hPa44%
18-Apr-2024 06:00Clear Sky23°C9 mph, NW0%10000m1013hPa50%
18-Apr-2024 09:00Clear Sky28°C9 mph, NW0%10000m1013hPa29%
18-Apr-2024 12:00Clear Sky32°C7 mph, NW0%10000m1011hPa19%
18-Apr-2024 15:00Clear Sky32°C16 mph, NW0%10000m1010hPa18%
18-Apr-2024 18:00Clear Sky24°C16 mph, N0%10000m1014hPa45%
18-Apr-2024 21:00Clear Sky21°C11 mph, NE0%10000m1015hPa66%
19-Apr-2024 00:00Clear Sky19°C9 mph, NE0%10000m1014hPa71%
19-Apr-2024 03:00Clear Sky18°C7 mph, NE0%10000m1014hPa77%
19-Apr-2024 06:00Clear Sky20°C7 mph, N2%10000m1015hPa59%
19-Apr-2024 09:00Clear Sky26°C9 mph, N0%10000m1014hPa27%
19-Apr-2024 12:00Clear Sky31°C11 mph, N0%10000m1011hPa18%
19-Apr-2024 15:00Clear Sky31°C20 mph, N0%10000m1010hPa16%
19-Apr-2024 18:00Clear Sky22°C16 mph, N0%10000m1013hPa46%
19-Apr-2024 21:00Clear Sky18°C11 mph, NE3%10000m1013hPa68%
20-Apr-2024 00:00Few Clouds17°C9 mph, NE14%10000m1012hPa78%
20-Apr-2024 03:00Clear Sky16°C9 mph, NE2%10000m1012hPa84%
20-Apr-2024 06:00Clear Sky19°C13 mph, NE6%10000m1011hPa59%
20-Apr-2024 09:00Clear Sky28°C13 mph, NE3%10000m1011hPa23%
20-Apr-2024 12:00Scattered Clouds32°C16 mph, NE37%10000m1008hPa14%